N129DC PLPA-XBEL
Flight info
| Callsign | N129DC |
|---|---|
| Flight time | N/A |
| Altitude | 37000 |
| Route | EIRSO SETZO MABBL BAMBO IF22N FF22N |
| Aircraft | FA50/M-A/S |
Departure
| Time | 2026-04-11 16:32 |
|---|---|
| Airport | Palmyra (Cooper) Airport (PLPA) |
Arrival
| Time | N/A |
|---|---|
| Airport | XBEL |
| Time | Latitude | Longitude | Altitude | Speed | Heading |
|---|---|---|---|---|---|
| 2026-04-11 16:24 | 5.88363 | -162.06523 | 12 ft | 0 kts | 68° |
| 2026-04-11 16:28 | 5.88365 | -162.06517 | 12 ft | 6 kts | 68° |
| 2026-04-11 16:28 | 5.88384 | -162.06534 | 12 ft | 8 kts | 248° |
| 2026-04-11 16:29 | 5.88355 | -162.06605 | 12 ft | 17 kts | 248° |
| 2026-04-11 16:29 | 5.88293 | -162.06762 | 12 ft | 30 kts | 250° |
| 2026-04-11 16:29 | 5.88221 | -162.06954 | 12 ft | 28 kts | 251° |
| 2026-04-11 16:29 | 5.88153 | -162.07134 | 12 ft | 27 kts | 249° |
| 2026-04-11 16:30 | 5.88093 | -162.07298 | 12 ft | 22 kts | 257° |
| 2026-04-11 16:30 | 5.88063 | -162.07422 | 12 ft | 9 kts | 198° |
| 2026-04-11 16:30 | 5.88052 | -162.07392 | 12 ft | 0 kts | 68° |
| 2026-04-11 16:31 | 5.88060 | -162.07371 | 12 ft | 23 kts | 68° |
| 2026-04-11 16:31 | 5.88224 | -162.06943 | 12 ft | 106 kts | 68° |
| 2026-04-11 16:31 | 5.88569 | -162.06062 | 237 ft | 157 kts | 70° |
| 2026-04-11 16:32 | 5.89114 | -162.05002 | 897 ft | 188 kts | 52° |
| 2026-04-11 16:32 | 5.90287 | -162.04252 | 1576 ft | 214 kts | 23° |
| 2026-04-11 16:32 | 5.91787 | -162.03928 | 2220 ft | 225 kts | 5° |
| 2026-04-11 16:32 | 5.93388 | -162.03994 | 2855 ft | 236 kts | 357° |
| 2026-04-11 16:33 | 5.95076 | -162.04151 | 3496 ft | 251 kts | 358° |
| 2026-04-11 16:33 | 5.96840 | -162.04225 | 4132 ft | 256 kts | 3° |
| 2026-04-11 16:33 | 5.98630 | -162.04186 | 4762 ft | 259 kts | 6° |
| 2026-04-11 16:33 | 6.00420 | -162.04054 | 5385 ft | 262 kts | 9° |
| 2026-04-11 16:34 | 6.02240 | -162.03845 | 6014 ft | 265 kts | 11° |
| 2026-04-11 16:34 | 6.04077 | -162.03579 | 6642 ft | 268 kts | 13° |
| 2026-04-11 16:34 | 6.05926 | -162.03271 | 7270 ft | 271 kts | 13° |
| 2026-04-11 16:34 | 6.07794 | -162.02932 | 7898 ft | 274 kts | 14° |
| 2026-04-11 16:35 | 6.09679 | -162.02569 | 8526 ft | 277 kts | 15° |
| 2026-04-11 16:35 | 6.11580 | -162.02189 | 9153 ft | 280 kts | 15° |
| 2026-04-11 16:35 | 6.13505 | -162.01793 | 9781 ft | 284 kts | 15° |
| 2026-04-11 16:35 | 6.15450 | -162.01387 | 10408 ft | 287 kts | 15° |
| 2026-04-11 16:36 | 6.17419 | -162.00969 | 11037 ft | 290 kts | 15° |
| 2026-04-11 16:36 | 6.19382 | -162.00549 | 11657 ft | 294 kts | 15° |
| 2026-04-11 16:36 | 6.21392 | -162.00117 | 12284 ft | 297 kts | 15° |
| 2026-04-11 16:36 | 6.23425 | -161.99678 | 12913 ft | 300 kts | 15° |
| 2026-04-11 16:37 | 6.25476 | -161.99234 | 13541 ft | 303 kts | 15° |
| 2026-04-11 16:37 | 6.27549 | -161.98784 | 14168 ft | 306 kts | 15° |
| 2026-04-11 16:37 | 6.29640 | -161.98330 | 14796 ft | 309 kts | 15° |
| 2026-04-11 16:37 | 6.31753 | -161.97870 | 15423 ft | 312 kts | 14° |
| 2026-04-11 16:38 | 6.33884 | -161.97406 | 16051 ft | 315 kts | 14° |
| 2026-04-11 16:38 | 6.36033 | -161.96937 | 16678 ft | 317 kts | 14° |
| 2026-04-11 16:38 | 6.38204 | -161.96464 | 17306 ft | 320 kts | 14° |
| 2026-04-11 16:38 | 6.40361 | -161.95993 | 17925 ft | 323 kts | 14° |
| 2026-04-11 16:39 | 6.42568 | -161.95512 | 18553 ft | 326 kts | 14° |
| 2026-04-11 16:39 | 6.44791 | -161.95027 | 19179 ft | 329 kts | 13° |
| 2026-04-11 16:39 | 6.47037 | -161.94537 | 19807 ft | 332 kts | 14° |
| 2026-04-11 16:39 | 6.49299 | -161.94044 | 20435 ft | 334 kts | 14° |
| 2026-04-11 16:40 | 6.51586 | -161.93545 | 21064 ft | 337 kts | 14° |
| 2026-04-11 16:40 | 6.53106 | -161.93213 | 21480 ft | 338 kts | 14° |
| 2026-04-11 16:40 | 6.55413 | -161.92710 | 22109 ft | 340 kts | 13° |
| 2026-04-11 16:40 | 6.57729 | -161.92204 | 22736 ft | 341 kts | 13° |
| 2026-04-11 16:41 | 6.60058 | -161.91694 | 23365 ft | 342 kts | 13° |
| 2026-04-11 16:41 | 6.62390 | -161.91182 | 23990 ft | 344 kts | 7° |
| 2026-04-11 16:41 | 6.64742 | -161.90668 | 24621 ft | 346 kts | 12° |
| 2026-04-11 16:41 | 6.67084 | -161.90158 | 25242 ft | 353 kts | 12° |
| 2026-04-11 16:42 | 6.69511 | -161.89627 | 25872 ft | 361 kts | 11° |
| 2026-04-11 16:42 | 6.71990 | -161.89086 | 26501 ft | 368 kts | 11° |
| 2026-04-11 16:42 | 6.74508 | -161.88535 | 27129 ft | 374 kts | 10° |
| 2026-04-11 16:43 | 6.79667 | -161.87408 | 28383 ft | 384 kts | 9° |
| 2026-04-11 16:43 | 6.82297 | -161.86834 | 29010 ft | 388 kts | 9° |
| 2026-04-11 16:43 | 6.84956 | -161.86254 | 29637 ft | 392 kts | 8° |
| 2026-04-11 16:43 | 6.87633 | -161.85670 | 30262 ft | 396 kts | 8° |
| 2026-04-11 16:44 | 6.90338 | -161.85079 | 30887 ft | 399 kts | 8° |
| 2026-04-11 16:44 | 6.93062 | -161.84484 | 31513 ft | 401 kts | 8° |
| 2026-04-11 16:44 | 6.95802 | -161.83886 | 32138 ft | 404 kts | 8° |
| 2026-04-11 16:44 | 6.98552 | -161.83285 | 32764 ft | 405 kts | 8° |
| 2026-04-11 16:45 | 7.01312 | -161.82681 | 33391 ft | 407 kts | 8° |
| 2026-04-11 16:45 | 7.04079 | -161.82075 | 34018 ft | 407 kts | 7° |
| 2026-04-11 16:45 | 7.06854 | -161.81467 | 34646 ft | 407 kts | 7° |
| 2026-04-11 16:45 | 7.09588 | -161.80867 | 35264 ft | 407 kts | 7° |
| 2026-04-11 16:46 | 7.12355 | -161.80260 | 35891 ft | 407 kts | 7° |
| 2026-04-11 16:46 | 7.15121 | -161.79653 | 36518 ft | 406 kts | 7° |
| 2026-04-11 16:46 | 7.17912 | -161.79043 | 36755 ft | 416 kts | 7° |
| 2026-04-11 16:46 | 7.20783 | -161.78420 | 36827 ft | 429 kts | 7° |
| 2026-04-11 16:47 | 7.23744 | -161.77781 | 36827 ft | 442 kts | 8° |
| 2026-04-11 16:47 | 7.26803 | -161.77119 | 36823 ft | 454 kts | 7° |
| 2026-04-11 16:47 | 7.29925 | -161.76443 | 36820 ft | 463 kts | 8° |
| 2026-04-11 16:48 | 7.36263 | -161.75060 | 36817 ft | 472 kts | 8° |
| 2026-04-11 16:48 | 7.42716 | -161.73640 | 36816 ft | 476 kts | 8° |
| 2026-04-11 16:49 | 7.49205 | -161.72209 | 36816 ft | 478 kts | 8° |
| 2026-04-11 16:49 | 7.55714 | -161.70774 | 36816 ft | 479 kts | 8° |
| 2026-04-11 16:50 | 7.62245 | -161.69334 | 36816 ft | 480 kts | 8° |
| 2026-04-11 16:50 | 7.68773 | -161.67896 | 36816 ft | 480 kts | 8° |
| 2026-04-11 16:51 | 7.75308 | -161.66456 | 36816 ft | 481 kts | 8° |
| 2026-04-11 16:51 | 7.81818 | -161.65024 | 36816 ft | 481 kts | 8° |
| 2026-04-11 16:52 | 7.88365 | -161.63584 | 36816 ft | 482 kts | 8° |
| 2026-04-11 16:52 | 7.94932 | -161.62138 | 36816 ft | 482 kts | 8° |
| 2026-04-11 16:53 | 8.01490 | -161.60695 | 36816 ft | 482 kts | 8° |
| 2026-04-11 16:53 | 8.08047 | -161.59251 | 36816 ft | 482 kts | 8° |
| 2026-04-11 16:54 | 8.14608 | -161.57806 | 36816 ft | 482 kts | 8° |
| 2026-04-11 16:54 | 8.21166 | -161.56361 | 36816 ft | 482 kts | 8° |
| 2026-04-11 16:55 | 8.27681 | -161.54926 | 36816 ft | 482 kts | 8° |
| 2026-04-11 16:55 | 8.34245 | -161.53480 | 36816 ft | 482 kts | 8° |
| 2026-04-11 16:56 | 8.44092 | -161.51307 | 36816 ft | 481 kts | 11° |
| 2026-04-11 16:56 | 8.50597 | -161.49725 | 36817 ft | 483 kts | 11° |
| 2026-04-11 16:57 | 8.57067 | -161.47837 | 36816 ft | 484 kts | 13° |
| 2026-04-11 16:57 | 8.63507 | -161.45829 | 36816 ft | 485 kts | 13° |
| 2026-04-11 16:58 | 8.69946 | -161.43776 | 36816 ft | 485 kts | 13° |
| 2026-04-11 16:58 | 8.76377 | -161.41712 | 36816 ft | 485 kts | 13° |
| 2026-04-11 16:59 | 8.82771 | -161.39659 | 36816 ft | 485 kts | 13° |
| 2026-04-11 16:59 | 8.89222 | -161.37590 | 36816 ft | 485 kts | 13° |
| 2026-04-11 17:00 | 8.95666 | -161.35526 | 36816 ft | 486 kts | 13° |
| 2026-04-11 17:00 | 9.02110 | -161.33465 | 36816 ft | 486 kts | 13° |
| 2026-04-11 17:01 | 9.08558 | -161.31404 | 36816 ft | 486 kts | 13° |
| 2026-04-11 17:01 | 9.15008 | -161.29343 | 36816 ft | 486 kts | 13° |
| 2026-04-11 17:02 | 9.21412 | -161.27298 | 36816 ft | 486 kts | 13° |
| 2026-04-11 17:02 | 9.27865 | -161.25238 | 36816 ft | 486 kts | 13° |
| 2026-04-11 17:03 | 9.34330 | -161.23173 | 36816 ft | 487 kts | 13° |
| 2026-04-11 17:03 | 9.40800 | -161.21107 | 36816 ft | 488 kts | 13° |
| 2026-04-11 17:04 | 9.47281 | -161.19038 | 36816 ft | 488 kts | 13° |
| 2026-04-11 17:04 | 9.53764 | -161.16966 | 36816 ft | 488 kts | 13° |
| 2026-04-11 17:05 | 9.60218 | -161.14903 | 36816 ft | 489 kts | 13° |
| 2026-04-11 17:05 | 9.66709 | -161.12827 | 36816 ft | 489 kts | 13° |
| 2026-04-11 17:06 | 9.73199 | -161.10751 | 36816 ft | 489 kts | 13° |
| 2026-04-11 17:06 | 9.79687 | -161.08674 | 36816 ft | 489 kts | 13° |
| 2026-04-11 17:07 | 9.86173 | -161.06597 | 36816 ft | 489 kts | 13° |
| 2026-04-11 17:07 | 9.92657 | -161.04520 | 36816 ft | 488 kts | 13° |
| 2026-04-11 17:08 | 9.99141 | -161.02443 | 36816 ft | 488 kts | 13° |
| 2026-04-11 17:08 | 10.05620 | -161.00366 | 36816 ft | 488 kts | 13° |
| 2026-04-11 17:09 | 10.12063 | -160.98301 | 36816 ft | 488 kts | 13° |
| 2026-04-11 17:09 | 10.18547 | -160.96221 | 36816 ft | 488 kts | 13° |
| 2026-04-11 17:13 | 10.63528 | -160.81764 | 36816 ft | 482 kts | 12° |
| 2026-04-11 17:13 | 10.69924 | -160.79706 | 36816 ft | 482 kts | 12° |
| 2026-04-11 17:14 | 10.76319 | -160.77648 | 36816 ft | 482 kts | 12° |
| 2026-04-11 17:14 | 10.82710 | -160.75587 | 36816 ft | 480 kts | 12° |
| 2026-04-11 17:16 | 10.98590 | -160.70467 | 36816 ft | 479 kts | 12° |
| 2026-04-11 17:16 | 11.04955 | -160.68414 | 36816 ft | 479 kts | 12° |
| 2026-04-11 17:17 | 11.11318 | -160.66360 | 36816 ft | 479 kts | 12° |
| 2026-04-11 17:17 | 11.17635 | -160.64320 | 36833 ft | 479 kts | 12° |
| 2026-04-11 17:18 | 11.23991 | -160.62267 | 36851 ft | 478 kts | 12° |
| 2026-04-11 17:18 | 11.30327 | -160.60218 | 36932 ft | 478 kts | 12° |
| 2026-04-11 17:19 | 11.36663 | -160.58169 | 36937 ft | 478 kts | 12° |
| 2026-04-11 17:19 | 11.42999 | -160.56118 | 36943 ft | 477 kts | 12° |
| 2026-04-11 17:20 | 11.49329 | -160.54070 | 36941 ft | 477 kts | 12° |
| 2026-04-11 17:20 | 11.55651 | -160.52022 | 36979 ft | 476 kts | 12° |
| 2026-04-11 17:21 | 11.61976 | -160.49973 | 36980 ft | 477 kts | 12° |
| 2026-04-11 17:21 | 11.68303 | -160.47922 | 36975 ft | 477 kts | 12° |
| 2026-04-11 17:22 | 11.74585 | -160.45886 | 36983 ft | 477 kts | 12° |
| 2026-04-11 17:22 | 11.80921 | -160.43830 | 36984 ft | 477 kts | 12° |
| 2026-04-11 17:23 | 11.87257 | -160.41773 | 36984 ft | 477 kts | 12° |
| 2026-04-11 17:23 | 11.93587 | -160.39717 | 36984 ft | 477 kts | 12° |
| 2026-04-11 17:24 | 11.99919 | -160.37660 | 36984 ft | 477 kts | 12° |
| 2026-04-11 17:24 | 12.06249 | -160.35602 | 36984 ft | 477 kts | 12° |
| 2026-04-11 17:25 | 12.12578 | -160.33543 | 36984 ft | 477 kts | 12° |
| 2026-04-11 17:25 | 12.18867 | -160.31496 | 36984 ft | 477 kts | 12° |
| 2026-04-11 17:26 | 12.24137 | -160.29780 | 36984 ft | 477 kts | 12° |
| 2026-04-11 17:26 | 12.31543 | -160.27368 | 36984 ft | 478 kts | 12° |
| 2026-04-11 17:27 | 12.36821 | -160.25649 | 36984 ft | 479 kts | 12° |
| 2026-04-11 17:27 | 12.43178 | -160.23577 | 36984 ft | 479 kts | 12° |
| 2026-04-11 17:28 | 12.49529 | -160.21504 | 36984 ft | 479 kts | 12° |
| 2026-04-11 17:28 | 12.55882 | -160.19430 | 36984 ft | 479 kts | 12° |
| 2026-04-11 17:29 | 12.62226 | -160.17357 | 36984 ft | 479 kts | 12° |
| 2026-04-11 17:29 | 12.68571 | -160.15284 | 36984 ft | 479 kts | 12° |
| 2026-04-11 17:30 | 12.74920 | -160.13208 | 36984 ft | 479 kts | 12° |
| 2026-04-11 17:30 | 12.81269 | -160.11132 | 36984 ft | 480 kts | 13° |
| 2026-04-11 17:31 | 12.87600 | -160.09062 | 36984 ft | 481 kts | 13° |
| 2026-04-11 17:31 | 12.93987 | -160.06972 | 36984 ft | 482 kts | 13° |
| 2026-04-11 17:32 | 13.00377 | -160.04878 | 36984 ft | 482 kts | 13° |
| 2026-04-11 17:32 | 13.06772 | -160.02781 | 36984 ft | 482 kts | 13° |
| 2026-04-11 17:33 | 13.13175 | -160.00681 | 36984 ft | 483 kts | 13° |
| 2026-04-11 17:33 | 13.19577 | -159.98580 | 36984 ft | 483 kts | 13° |
| 2026-04-11 17:34 | 13.25980 | -159.96477 | 36984 ft | 483 kts | 13° |
| 2026-04-11 17:34 | 13.32341 | -159.94386 | 36984 ft | 482 kts | 13° |
| 2026-04-11 17:35 | 13.38736 | -159.92284 | 36984 ft | 482 kts | 13° |
| 2026-04-11 17:35 | 13.45127 | -159.90181 | 36984 ft | 482 kts | 13° |
| 2026-04-11 17:36 | 13.51515 | -159.88079 | 36984 ft | 482 kts | 13° |
| 2026-04-11 17:36 | 13.57902 | -159.85976 | 36984 ft | 482 kts | 13° |
| 2026-04-11 17:37 | 13.64284 | -159.83873 | 36984 ft | 482 kts | 13° |
| 2026-04-11 17:37 | 13.70672 | -159.81767 | 36984 ft | 482 kts | 13° |
| 2026-04-11 17:38 | 13.77056 | -159.79662 | 36984 ft | 481 kts | 13° |
| 2026-04-11 17:38 | 13.83393 | -159.77570 | 36984 ft | 481 kts | 13° |
| 2026-04-11 17:39 | 13.89756 | -159.75468 | 36984 ft | 480 kts | 13° |
| 2026-04-11 17:39 | 13.96128 | -159.73363 | 36984 ft | 481 kts | 13° |
| 2026-04-11 17:40 | 14.02506 | -159.71256 | 36986 ft | 481 kts | 13° |
| 2026-04-11 17:40 | 14.08891 | -159.69144 | 36992 ft | 481 kts | 13° |
| 2026-04-11 17:41 | 14.15228 | -159.67046 | 36994 ft | 481 kts | 13° |
| 2026-04-11 17:41 | 14.21601 | -159.64936 | 37005 ft | 481 kts | 13° |
| 2026-04-11 17:42 | 14.27974 | -159.62824 | 36999 ft | 481 kts | 13° |
| 2026-04-11 17:42 | 14.34328 | -159.60714 | 36995 ft | 479 kts | 12° |
| 2026-04-11 17:43 | 14.43829 | -159.57560 | 36994 ft | 478 kts | 13° |
| 2026-04-11 17:43 | 14.50175 | -159.55453 | 36995 ft | 477 kts | 12° |
| 2026-04-11 17:44 | 14.56499 | -159.53353 | 36995 ft | 477 kts | 12° |
| 2026-04-11 17:44 | 14.62817 | -159.51253 | 36993 ft | 477 kts | 12° |
| 2026-04-11 17:45 | 14.69130 | -159.49153 | 36992 ft | 477 kts | 12° |
| 2026-04-11 17:45 | 14.75415 | -159.47062 | 36994 ft | 477 kts | 12° |
| 2026-04-11 17:46 | 14.81734 | -159.44958 | 36997 ft | 476 kts | 13° |
| 2026-04-11 17:46 | 14.88052 | -159.42854 | 36997 ft | 476 kts | 13° |
| 2026-04-11 17:47 | 14.94364 | -159.40749 | 36994 ft | 476 kts | 13° |
| 2026-04-11 17:47 | 15.00623 | -159.38660 | 36994 ft | 476 kts | 13° |
| 2026-04-11 17:48 | 15.10089 | -159.35499 | 36993 ft | 476 kts | 13° |
| 2026-04-11 17:49 | 15.19548 | -159.32337 | 36997 ft | 476 kts | 13° |
| 2026-04-11 17:50 | 15.28999 | -159.29175 | 36995 ft | 476 kts | 13° |
| 2026-04-11 17:50 | 15.35315 | -159.27061 | 36994 ft | 477 kts | 12° |
| 2026-04-11 17:51 | 15.41631 | -159.24945 | 36993 ft | 477 kts | 12° |
| 2026-04-11 17:51 | 15.51082 | -159.21777 | 36994 ft | 478 kts | 13° |
| 2026-04-11 17:52 | 15.57406 | -159.19655 | 36995 ft | 478 kts | 13° |
| 2026-04-11 17:52 | 15.63730 | -159.17531 | 36996 ft | 478 kts | 13° |
| 2026-04-11 17:53 | 15.70064 | -159.15403 | 36996 ft | 478 kts | 13° |
| 2026-04-11 17:53 | 15.76387 | -159.13276 | 36995 ft | 478 kts | 13° |
| 2026-04-11 17:54 | 15.82717 | -159.11146 | 36993 ft | 478 kts | 13° |
| 2026-04-11 17:54 | 15.89038 | -159.09018 | 36992 ft | 477 kts | 13° |
| 2026-04-11 17:55 | 15.95357 | -159.06889 | 36995 ft | 477 kts | 13° |
| 2026-04-11 17:55 | 16.01672 | -159.04760 | 36996 ft | 477 kts | 13° |
| 2026-04-11 17:56 | 16.07997 | -159.02626 | 36996 ft | 477 kts | 13° |
| 2026-04-11 17:56 | 16.14321 | -159.00490 | 36993 ft | 478 kts | 13° |
| 2026-04-11 17:57 | 16.20646 | -158.98352 | 36993 ft | 478 kts | 13° |
| 2026-04-11 17:57 | 16.26927 | -158.96229 | 36994 ft | 477 kts | 13° |
| 2026-04-11 17:58 | 16.33260 | -158.94088 | 36994 ft | 479 kts | 13° |
| 2026-04-11 17:58 | 16.39602 | -158.91943 | 36995 ft | 479 kts | 13° |
| 2026-04-11 17:59 | 16.45951 | -158.89793 | 36995 ft | 480 kts | 13° |
| 2026-04-11 17:59 | 16.52298 | -158.87642 | 36995 ft | 480 kts | 13° |
| 2026-04-11 18:00 | 16.58655 | -158.85486 | 36994 ft | 480 kts | 13° |
| 2026-04-11 18:00 | 16.65008 | -158.83330 | 36992 ft | 480 kts | 13° |
| 2026-04-11 18:01 | 16.71364 | -158.81171 | 36994 ft | 480 kts | 13° |
| 2026-04-11 18:01 | 16.77677 | -158.79024 | 36996 ft | 480 kts | 13° |
| 2026-04-11 18:02 | 16.84046 | -158.76858 | 36993 ft | 482 kts | 12° |
| 2026-04-11 18:02 | 16.90422 | -158.74689 | 36986 ft | 482 kts | 13° |
| 2026-04-11 18:03 | 16.96806 | -158.72516 | 36986 ft | 482 kts | 13° |
| 2026-04-11 18:03 | 17.03186 | -158.70341 | 36984 ft | 482 kts | 13° |
| 2026-04-11 18:04 | 17.09553 | -158.68169 | 36983 ft | 481 kts | 13° |
| 2026-04-11 18:04 | 17.15880 | -158.66008 | 36982 ft | 481 kts | 13° |
| 2026-04-11 18:05 | 17.22245 | -158.63833 | 36986 ft | 481 kts | 13° |
| 2026-04-11 18:05 | 17.28610 | -158.61657 | 36985 ft | 481 kts | 13° |
| 2026-04-11 18:06 | 17.34995 | -158.59475 | 36984 ft | 484 kts | 13° |
| 2026-04-11 18:06 | 17.41412 | -158.57279 | 36985 ft | 485 kts | 14° |
| 2026-04-11 18:07 | 17.47847 | -158.55075 | 36986 ft | 486 kts | 13° |
| 2026-04-11 18:07 | 17.54284 | -158.52868 | 36986 ft | 487 kts | 13° |
| 2026-04-11 18:08 | 17.60686 | -158.50671 | 36986 ft | 487 kts | 13° |
| 2026-04-11 18:08 | 17.67132 | -158.48457 | 36987 ft | 487 kts | 13° |
| 2026-04-11 18:09 | 17.73579 | -158.46241 | 36985 ft | 487 kts | 13° |
| 2026-04-11 18:09 | 17.80028 | -158.44022 | 36984 ft | 488 kts | 13° |
| 2026-04-11 18:10 | 17.86488 | -158.41798 | 36985 ft | 489 kts | 13° |
| 2026-04-11 18:10 | 17.92957 | -158.39570 | 36983 ft | 489 kts | 13° |
| 2026-04-11 18:11 | 17.99425 | -158.37341 | 36982 ft | 489 kts | 13° |
| 2026-04-11 18:11 | 18.05893 | -158.35110 | 36982 ft | 489 kts | 13° |
| 2026-04-11 18:12 | 18.12325 | -158.32889 | 36983 ft | 489 kts | 13° |
| 2026-04-11 18:12 | 18.18802 | -158.30652 | 36982 ft | 489 kts | 13° |
| 2026-04-11 18:13 | 18.25272 | -158.28414 | 36984 ft | 489 kts | 13° |
| 2026-04-11 18:13 | 18.31744 | -158.26175 | 36984 ft | 489 kts | 13° |
| 2026-04-11 18:14 | 18.38220 | -158.23932 | 36984 ft | 489 kts | 13° |
| 2026-04-11 18:14 | 18.43597 | -158.22069 | 36983 ft | 489 kts | 13° |
| 2026-04-11 18:15 | 18.50072 | -158.19823 | 36983 ft | 489 kts | 13° |
| 2026-04-11 18:15 | 18.56543 | -158.17577 | 36984 ft | 489 kts | 13° |
| 2026-04-11 18:16 | 18.63018 | -158.15328 | 36984 ft | 489 kts | 13° |
| 2026-04-11 18:16 | 18.69487 | -158.13079 | 36984 ft | 489 kts | 13° |
| 2026-04-11 18:17 | 18.75955 | -158.10828 | 36985 ft | 489 kts | 13° |
| 2026-04-11 18:17 | 18.82390 | -158.08588 | 36983 ft | 489 kts | 13° |
| 2026-04-11 18:18 | 18.88860 | -158.06333 | 36984 ft | 489 kts | 13° |
| 2026-04-11 18:18 | 18.95329 | -158.04077 | 36984 ft | 489 kts | 13° |
| 2026-04-11 18:19 | 19.01795 | -158.01820 | 36984 ft | 489 kts | 13° |
| 2026-04-11 18:19 | 19.08271 | -157.99557 | 36985 ft | 489 kts | 13° |
| 2026-04-11 18:20 | 19.14740 | -157.97296 | 36982 ft | 489 kts | 13° |
| 2026-04-11 18:20 | 19.21207 | -157.95032 | 36983 ft | 489 kts | 13° |
| 2026-04-11 18:21 | 19.27682 | -157.92765 | 36982 ft | 489 kts | 13° |
| 2026-04-11 18:21 | 19.34102 | -157.90515 | 36982 ft | 490 kts | 13° |
| 2026-04-11 18:22 | 19.40577 | -157.88243 | 36982 ft | 490 kts | 13° |
| 2026-04-11 18:22 | 19.47051 | -157.85970 | 36981 ft | 490 kts | 13° |
| 2026-04-11 18:23 | 19.53519 | -157.83697 | 36981 ft | 489 kts | 13° |
| 2026-04-11 18:23 | 19.60010 | -157.81417 | 36415 ft | 493 kts | 13° |
| 2026-04-11 18:24 | 19.63267 | -157.80272 | 35854 ft | 492 kts | 14° |
| 2026-04-11 18:24 | 19.66509 | -157.79132 | 35281 ft | 491 kts | 14° |
| 2026-04-11 18:24 | 19.69748 | -157.77991 | 34705 ft | 489 kts | 14° |
| 2026-04-11 18:24 | 19.72935 | -157.76868 | 34136 ft | 487 kts | 15° |
| 2026-04-11 18:25 | 19.76141 | -157.75738 | 33560 ft | 484 kts | 15° |
| 2026-04-11 18:25 | 19.79325 | -157.74614 | 32983 ft | 480 kts | 15° |
| 2026-04-11 18:25 | 19.82485 | -157.73499 | 32406 ft | 476 kts | 16° |
| 2026-04-11 18:26 | 19.88720 | -157.71296 | 31252 ft | 468 kts | 16° |
| 2026-04-11 18:26 | 19.91798 | -157.70207 | 30676 ft | 464 kts | 16° |
| 2026-04-11 18:26 | 19.94853 | -157.69125 | 30098 ft | 460 kts | 16° |
| 2026-04-11 18:26 | 19.97872 | -157.68056 | 29523 ft | 456 kts | 16° |
| 2026-04-11 18:27 | 20.00868 | -157.66995 | 28946 ft | 451 kts | 16° |
| 2026-04-11 18:27 | 20.03835 | -157.65944 | 28370 ft | 447 kts | 16° |
| 2026-04-11 18:27 | 20.06776 | -157.64901 | 27793 ft | 443 kts | 16° |
| 2026-04-11 18:27 | 20.09686 | -157.63870 | 27218 ft | 439 kts | 17° |
| 2026-04-11 18:28 | 20.12543 | -157.62857 | 26648 ft | 435 kts | 17° |
| 2026-04-11 18:28 | 20.15404 | -157.61843 | 26072 ft | 432 kts | 16° |
| 2026-04-11 18:28 | 20.18243 | -157.60836 | 25496 ft | 428 kts | 16° |
| 2026-04-11 18:28 | 20.21056 | -157.59838 | 24920 ft | 424 kts | 17° |
| 2026-04-11 18:29 | 20.23844 | -157.58848 | 24344 ft | 421 kts | 16° |
| 2026-04-11 18:29 | 20.26607 | -157.57868 | 23769 ft | 417 kts | 17° |
| 2026-04-11 18:29 | 20.29358 | -157.56891 | 23192 ft | 414 kts | 17° |
| 2026-04-11 18:29 | 20.32078 | -157.55925 | 22617 ft | 411 kts | 17° |
| 2026-04-11 18:30 | 20.34782 | -157.54965 | 22041 ft | 408 kts | 17° |
| 2026-04-11 18:30 | 20.37464 | -157.54012 | 21465 ft | 405 kts | 17° |
| 2026-04-11 18:30 | 20.40129 | -157.53065 | 20890 ft | 402 kts | 17° |
| 2026-04-11 18:30 | 20.42777 | -157.52124 | 20314 ft | 400 kts | 17° |
| 2026-04-11 18:31 | 20.45410 | -157.51187 | 19738 ft | 397 kts | 17° |
| 2026-04-11 18:31 | 20.48019 | -157.50259 | 19163 ft | 394 kts | 17° |
| 2026-04-11 18:31 | 20.50612 | -157.49336 | 18587 ft | 391 kts | 17° |
| 2026-04-11 18:31 | 20.53184 | -157.48419 | 18010 ft | 387 kts | 17° |
| 2026-04-11 18:32 | 20.55730 | -157.47511 | 17435 ft | 384 kts | 17° |
| 2026-04-11 18:32 | 20.58217 | -157.46623 | 16867 ft | 380 kts | 17° |
| 2026-04-11 18:32 | 20.60712 | -157.45732 | 16291 ft | 376 kts | 17° |
| 2026-04-11 18:32 | 20.63169 | -157.44855 | 15716 ft | 367 kts | 17° |
| 2026-04-11 18:33 | 20.65553 | -157.44002 | 15139 ft | 355 kts | 17° |
| 2026-04-11 18:33 | 20.67860 | -157.43176 | 14564 ft | 345 kts | 16° |
| 2026-04-11 18:33 | 20.70113 | -157.42370 | 13988 ft | 338 kts | 16° |
| 2026-04-11 18:33 | 20.72323 | -157.41580 | 13412 ft | 332 kts | 16° |
| 2026-04-11 18:34 | 20.74501 | -157.40809 | 12835 ft | 327 kts | 15° |
| 2026-04-11 18:34 | 20.76697 | -157.40271 | 12260 ft | 320 kts | 6° |
| 2026-04-11 18:34 | 20.78891 | -157.40000 | 11687 ft | 315 kts | 1° |
| 2026-04-11 18:34 | 20.81065 | -157.39889 | 11112 ft | 310 kts | 358° |
| 2026-04-11 18:35 | 20.83208 | -157.39875 | 10540 ft | 306 kts | 356° |
| 2026-04-11 18:35 | 20.85315 | -157.39919 | 10090 ft | 298 kts | 355° |
| 2026-04-11 18:35 | 20.87324 | -157.39994 | 10017 ft | 288 kts | 354° |
| 2026-04-11 18:35 | 20.89318 | -157.40089 | 9988 ft | 287 kts | 354° |
| 2026-04-11 18:36 | 20.91360 | -157.40202 | 9602 ft | 298 kts | 354° |
| 2026-04-11 18:36 | 20.93417 | -157.40323 | 9226 ft | 291 kts | 354° |
| 2026-04-11 18:36 | 20.95393 | -157.40439 | 8849 ft | 278 kts | 354° |
| 2026-04-11 18:36 | 20.97287 | -157.40552 | 8472 ft | 268 kts | 354° |
| 2026-04-11 18:37 | 20.99129 | -157.40665 | 8096 ft | 262 kts | 354° |
| 2026-04-11 18:37 | 21.00934 | -157.40777 | 7720 ft | 258 kts | 354° |
| 2026-04-11 18:37 | 21.02718 | -157.40890 | 7344 ft | 255 kts | 354° |
| 2026-04-11 18:37 | 21.04426 | -157.40998 | 6980 ft | 253 kts | 354° |
| 2026-04-11 18:39 | 21.04757 | -157.41018 | 6909 ft | 252 kts | 353° |
| 2026-04-11 18:39 | 21.06482 | -157.41128 | 6537 ft | 250 kts | 354° |
| 2026-04-11 18:40 | 21.08215 | -157.41238 | 6162 ft | 248 kts | 354° |
| 2026-04-11 18:40 | 21.09937 | -157.41346 | 5786 ft | 247 kts | 354° |
| 2026-04-11 18:40 | 21.11644 | -157.41454 | 5412 ft | 245 kts | 354° |
| 2026-04-11 18:40 | 21.13344 | -157.41561 | 5034 ft | 243 kts | 354° |
| 2026-04-11 18:41 | 21.15026 | -157.41666 | 4658 ft | 240 kts | 354° |
| 2026-04-11 18:41 | 21.16673 | -157.41768 | 4281 ft | 233 kts | 354° |
| 2026-04-11 18:41 | 21.18264 | -157.41961 | 3906 ft | 227 kts | 347° |
| 2026-04-11 18:41 | 21.19771 | -157.42331 | 3536 ft | 223 kts | 340° |
| 2026-04-11 18:42 | 21.21250 | -157.42802 | 3161 ft | 221 kts | 338° |
| 2026-04-11 18:42 | 21.22703 | -157.43326 | 2786 ft | 220 kts | 336° |
| 2026-04-11 18:42 | 21.24141 | -157.43876 | 2409 ft | 219 kts | 335° |
| 2026-04-11 18:42 | 21.25558 | -157.44437 | 2135 ft | 213 kts | 335° |
| 2026-04-11 18:43 | 21.26927 | -157.44985 | 2033 ft | 207 kts | 335° |
| 2026-04-11 18:43 | 21.28285 | -157.45536 | 2000 ft | 209 kts | 334° |
| 2026-04-11 18:43 | 21.29653 | -157.46093 | 1994 ft | 211 kts | 334° |
| 2026-04-11 18:43 | 21.31027 | -157.46655 | 1990 ft | 212 kts | 334° |
| 2026-04-11 18:44 | 21.32409 | -157.47220 | 1988 ft | 213 kts | 335° |
| 2026-04-11 18:44 | 21.33778 | -157.47781 | 1988 ft | 214 kts | 335° |
| 2026-04-11 18:44 | 21.35171 | -157.48349 | 1986 ft | 214 kts | 335° |
| 2026-04-11 18:44 | 21.36565 | -157.48918 | 1991 ft | 213 kts | 335° |
| 2026-04-11 18:45 | 21.37952 | -157.49486 | 1998 ft | 213 kts | 335° |
| 2026-04-11 18:45 | 21.39343 | -157.50053 | 1999 ft | 213 kts | 334° |
| 2026-04-11 18:45 | 21.40699 | -157.50693 | 1975 ft | 212 kts | 328° |
| 2026-04-11 18:45 | 21.41956 | -157.51500 | 1914 ft | 213 kts | 322° |
| 2026-04-11 18:46 | 21.43149 | -157.52410 | 1675 ft | 208 kts | 318° |
| 2026-04-11 18:46 | 21.44257 | -157.53339 | 1428 ft | 201 kts | 316° |
| 2026-04-11 18:46 | 21.45305 | -157.54261 | 1260 ft | 184 kts | 316° |
| 2026-04-11 18:46 | 21.46249 | -157.55105 | 1164 ft | 175 kts | 315° |
| 2026-04-11 18:47 | 21.47186 | -157.55957 | 1150 ft | 175 kts | 315° |
| 2026-04-11 18:47 | 21.48073 | -157.56759 | 1134 ft | 158 kts | 316° |
| 2026-04-11 18:47 | 21.48838 | -157.57524 | 1110 ft | 142 kts | 298° |
| 2026-04-11 18:47 | 21.48929 | -157.58487 | 1134 ft | 131 kts | 251° |
| 2026-04-11 18:48 | 21.48489 | -157.59303 | 1164 ft | 117 kts | 235° |
| 2026-04-11 18:48 | 21.47985 | -157.59870 | 1082 ft | 99 kts | 210° |
| 2026-04-11 18:48 | 21.47388 | -157.60052 | 1123 ft | 86 kts | 200° |
| 2026-04-11 18:48 | 21.46803 | -157.60309 | 1171 ft | 99 kts | 207° |
| 2026-04-11 18:49 | 21.46153 | -157.60704 | 1176 ft | 114 kts | 214° |
| 2026-04-11 18:49 | 21.45537 | -157.61237 | 1159 ft | 114 kts | 223° |
| 2026-04-11 18:49 | 21.44995 | -157.61864 | 1154 ft | 115 kts | 229° |
| 2026-04-11 18:49 | 21.44523 | -157.62563 | 1178 ft | 116 kts | 235° |
| 2026-04-11 18:50 | 21.44068 | -157.63280 | 1242 ft | 115 kts | 235° |
| 2026-04-11 18:50 | 21.43604 | -157.63966 | 1339 ft | 113 kts | 230° |
| 2026-04-11 18:50 | 21.43111 | -157.64628 | 1416 ft | 114 kts | 231° |
| 2026-04-11 18:50 | 21.42608 | -157.65292 | 1442 ft | 114 kts | 230° |
| 2026-04-11 18:51 | 21.42106 | -157.65945 | 1376 ft | 113 kts | 230° |
| 2026-04-11 18:51 | 21.41618 | -157.66586 | 1240 ft | 112 kts | 230° |
| 2026-04-11 18:51 | 21.41125 | -157.67245 | 1095 ft | 113 kts | 231° |
| 2026-04-11 18:51 | 21.40629 | -157.67908 | 967 ft | 114 kts | 230° |
| 2026-04-11 18:52 | 21.40131 | -157.68550 | 814 ft | 108 kts | 230° |
| 2026-04-11 18:52 | 21.39669 | -157.69153 | 585 ft | 99 kts | 231° |
| 2026-04-11 18:52 | 21.39231 | -157.69725 | 338 ft | 100 kts | 231° |
| 2026-04-11 18:52 | 21.38801 | -157.70302 | 183 ft | 98 kts | 231° |
| 2026-04-11 18:53 | 21.38388 | -157.70859 | 109 ft | 92 kts | 231° |
| 2026-04-11 18:53 | 21.38006 | -157.71355 | 20 ft | 76 kts | 232° |
| 2026-04-11 18:53 | 21.37727 | -157.71728 | 20 ft | 35 kts | 231° |
| 2026-04-11 18:53 | 21.37703 | -157.71757 | 20 ft | 0 kts | 221° |
| 2026-04-11 18:54 | 21.37709 | -157.71751 | 20 ft | 2 kts | 221° |
| 2026-04-11 18:54 | 21.37642 | -157.71767 | 20 ft | 15 kts | 187° |
| 2026-04-11 18:54 | 21.37559 | -157.71780 | 20 ft | 9 kts | 189° |
| 2026-04-11 18:54 | 21.37504 | -157.71791 | 20 ft | 7 kts | 190° |
| 2026-04-11 18:55 | 21.37456 | -157.71801 | 20 ft | 8 kts | 190° |
| 2026-04-11 18:55 | 21.37393 | -157.71813 | 20 ft | 10 kts | 190° |
| 2026-04-11 18:55 | 21.37318 | -157.71830 | 20 ft | 12 kts | 191° |
| 2026-04-11 18:55 | 21.37240 | -157.71847 | 20 ft | 10 kts | 191° |
| 2026-04-11 18:56 | 21.37190 | -157.71869 | 20 ft | 6 kts | 249° |
| 2026-04-11 18:56 | 21.37187 | -157.71907 | 20 ft | 4 kts | 278° |
| 2026-04-11 18:56 | 21.37189 | -157.71923 | 20 ft | 0 kts | 279° |